Time;durP1;ratioP1;P1;durP2;ratioP2;P2;SDS_P1;SDS_P2;PMS_P1;PMS_P2;Temp;Humidity;BMP_temperature;BMP_pressure;BME280_temperature;BME280_humidity;BME280_pressure;Samples;Min_cycle;Max_cycle;Signal;HPM_P1;HPM_P2
2023/07/16 00:00:27;;;;;;;5.95;3.90;;;;;;;25.80;100.00;100449.25;5089015;28;20048;-59
2023/07/16 00:02:53;;;;;;;6.38;4.35;;;;;;;25.60;100.00;100442.56;5086493;28;20044;-59
2023/07/16 00:05:20;;;;;;;12.63;4.15;;;;;;;25.92;100.00;100440.75;5076259;28;20086;-59
2023/07/16 00:07:47;;;;;;;5.90;3.95;;;;;;;25.79;100.00;100435.91;5083376;28;20764;-59
2023/07/16 00:10:13;;;;;;;9.10;4.47;;;;;;;25.59;100.00;100444.44;5076304;28;20132;-59
2023/07/16 00:12:40;;;;;;;9.10;5.05;;;;;;;25.10;100.00;100453.53;5079262;28;20072;-59
2023/07/16 00:15:07;;;;;;;7.70;4.15;;;;;;;24.77;100.00;100462.72;5077173;28;20966;-59
2023/07/16 00:17:34;;;;;;;11.45;3.83;;;;;;;24.76;100.00;100478.06;5081042;28;20040;-59
2023/07/16 00:20:01;;;;;;;6.35;4.80;;;;;;;25.32;100.00;100477.34;5087250;28;20113;-59
2023/07/16 00:22:28;;;;;;;5.45;3.78;;;;;;;25.34;100.00;100478.00;5087570;28;20126;-59
2023/07/16 00:24:54;;;;;;;9.85;4.03;;;;;;;25.29;100.00;100478.56;5082725;28;20052;-59
2023/07/16 00:27:21;;;;;;;6.55;4.18;;;;;;;25.18;100.00;100482.41;5088242;28;20051;-60
2023/07/16 00:29:47;;;;;;;7.13;4.13;;;;;;;25.18;100.00;100492.41;5087824;28;20048;-59
2023/07/16 00:32:14;;;;;;;5.90;3.83;;;;;;;25.16;100.00;100491.72;5088219;28;20058;-59
2023/07/16 00:34:40;;;;;;;32.92;5.38;;;;;;;25.54;100.00;100492.00;5078565;28;20612;-60
2023/07/16 00:37:07;;;;;;;9.68;4.10;;;;;;;25.67;100.00;100513.09;5087708;28;20097;-59
2023/07/16 00:39:33;;;;;;;7.47;4.85;;;;;;;25.66;100.00;100528.47;5081991;28;20075;-59
2023/07/16 00:42:00;;;;;;;7.50;4.15;;;;;;;24.57;100.00;100554.91;5087178;28;20082;-59
2023/07/16 00:44:26;;;;;;;5.35;3.75;;;;;;;24.28;100.00;100585.84;5087761;28;20044;-58
2023/07/16 00:46:53;;;;;;;6.30;3.83;;;;;;;24.37;100.00;100598.38;5084466;28;20048;-59
2023/07/16 00:49:20;;;;;;;4.90;3.38;;;;;;;24.32;100.00;100599.88;5085939;28;20055;-59
2023/07/16 00:51:46;;;;;;;6.10;4.22;;;;;;;24.22;100.00;100621.59;5084827;28;20044;-59
2023/07/16 00:54:13;;;;;;;6.10;4.07;;;;;;;24.44;100.00;100624.72;5086305;28;20088;-59
2023/07/16 00:56:40;;;;;;;10.98;4.07;;;;;;;21.24;100.00;100684.91;5087634;28;20572;-58
2023/07/16 00:59:06;;;;;;;8.02;4.82;;;;;;;20.98;100.00;100712.31;5087246;28;20152;-56
2023/07/16 01:01:33;;;;;;;6.28;4.68;;;;;;;20.71;100.00;100742.50;5087026;28;20075;-57
2023/07/16 01:04:00;;;;;;;6.07;4.90;;;;;;;20.80;100.00;100744.38;5087074;28;20242;-57
2023/07/16 01:06:43;;;;;;;6.25;4.35;;;;;;;20.79;100.00;100742.66;5081837;28;20147;-58
2023/07/16 01:09:17;;;;;;;7.45;4.78;;;;;;;20.75;100.00;100745.78;5079656;28;20497;-58
2023/07/16 01:11:45;;;;;;;12.00;4.05;;;;;;;19.63;100.00;100822.28;5082579;28;20546;-58
2023/07/16 01:14:13;;;;;;;9.88;4.82;;;;;;;-145.07;100.00;61000.34;5086434;28;20044;-57
2023/07/16 01:16:41;;;;;;;16.25;5.88;;;;;;;-145.07;100.00;61000.34;5082873;28;20052;-57
2023/07/16 01:19:08;;;;;;;8.93;5.45;;;;;;;-145.07;100.00;61000.34;5082789;28;20111;-56
2023/07/16 01:21:56;;;;;;;8.93;5.70;;;;;;;19.72;100.00;100876.13;5085440;28;20083;-56
2023/07/16 01:24:31;;;;;;;6.25;5.13;;;;;;;19.83;100.00;100894.03;5084118;28;20565;-57
2023/07/16 01:27:13;;;;;;;11.68;5.53;;;;;;;20.00;100.00;100882.75;5087645;28;20134;-58
2023/07/16 01:29:55;;;;;;;7.82;5.57;;;;;;;20.07;100.00;100888.47;5080047;28;20047;-58
2023/07/16 01:32:23;;;;;;;6.45;4.93;;;;;;;20.14;100.00;100890.50;5087688;28;20403;-58
2023/07/16 01:34:52;;;;;;;10.50;5.82;;;;;;;20.10;100.00;100882.84;5085984;28;20044;-59
2023/07/16 01:37:19;;;;;;;13.02;5.30;;;;;;;20.10;100.00;100886.38;5077834;28;20055;-59
2023/07/16 01:39:46;;;;;;;8.93;5.05;;;;;;;20.15;100.00;100888.66;5086510;28;20050;-59
2023/07/16 01:42:13;;;;;;;7.45;4.95;;;;;;;20.18;100.00;100891.09;5086603;28;20119;-59
2023/07/16 01:44:40;;;;;;;6.60;4.57;;;;;;;20.26;100.00;100885.94;5079837;28;20123;-59
2023/07/16 01:47:11;;;;;;;5.57;4.63;;;;;;;20.30;100.00;100884.69;5086119;28;20521;-59
2023/07/16 01:49:43;;;;;;;5.80;4.35;;;;;;;20.56;100.00;100861.97;5083824;28;20062;-59
2023/07/16 01:52:10;;;;;;;5.97;3.95;;;;;;;20.58;100.00;100854.63;5084970;28;20159;-59
2023/07/16 01:54:37;;;;;;;9.02;4.25;;;;;;;20.59;100.00;100857.19;5086748;28;20058;-59
2023/07/16 01:57:04;;;;;;;6.95;3.72;;;;;;;20.63;100.00;100863.13;5082401;28;20475;-59
2023/07/16 01:59:30;;;;;;;6.07;4.03;;;;;;;20.82;100.00;100851.69;5086302;28;20228;-58
2023/07/16 02:01:57;;;;;;;10.82;4.57;;;;;;;20.34;100.00;100864.66;5080478;28;20040;-58
2023/07/16 02:04:23;;;;;;;7.55;4.78;;;;;;;20.16;100.00;100860.88;5085331;28;20040;-59
2023/07/16 02:06:50;;;;;;;8.57;4.63;;;;;;;19.96;100.00;100870.59;5085177;28;20048;-56
2023/07/16 02:09:16;;;;;;;6.93;3.50;;;;;;;19.81;100.00;100878.06;5085873;28;20080;-57
2023/07/16 02:11:43;;;;;;;6.25;3.35;;;;;;;19.86;100.00;100865.16;5085223;28;20472;-57
2023/07/16 02:14:09;;;;;;;7.10;3.55;;;;;;;19.86;100.00;100865.16;5082735;28;20048;-58
2023/07/16 02:16:36;;;;;;;7.10;3.83;;;;;;;19.79;100.00;100885.38;5083028;28;20048;-57
2023/07/16 02:19:02;;;;;;;5.45;3.72;;;;;;;19.73;100.00;100865.28;5082677;28;20056;-57
2023/07/16 02:21:29;;;;;;;6.07;4.07;;;;;;;19.69;100.00;100846.88;5078217;28;20056;-57
2023/07/16 02:23:55;;;;;;;9.45;5.18;;;;;;;19.90;100.00;100858.53;5073320;28;20066;-57
2023/07/16 02:26:22;;;;;;;10.73;4.25;;;;;;;19.88;100.00;100857.81;5077699;28;20661;-57
2023/07/16 02:28:49;;;;;;;9.38;4.63;;;;;;;19.88;100.00;100835.47;5086948;28;20074;-57
2023/07/16 02:31:15;;;;;;;5.80;4.07;;;;;;;19.86;100.00;100830.28;5081939;28;20124;-58
2023/07/16 02:33:42;;;;;;;7.75;4.63;;;;;;;19.51;100.00;100844.72;5085347;28;20135;-59
2023/07/16 02:36:08;;;;;;;17.80;4.00;;;;;;;19.46;100.00;100846.94;5086019;28;20599;-58
2023/07/16 02:38:35;;;;;;;6.28;4.82;;;;;;;19.47;100.00;100847.78;5084896;28;20095;-58
2023/07/16 02:41:01;;;;;;;6.40;4.43;;;;;;;19.51;100.00;100850.09;5074345;28;20071;-58
2023/07/16 02:43:28;;;;;;;7.25;3.85;;;;;;;19.55;100.00;100845.31;5085886;28;20062;-58
2023/07/16 02:45:55;;;;;;;7.47;3.80;;;;;;;19.58;100.00;100845.94;5081645;28;20487;-58
2023/07/16 02:48:21;;;;;;;7.30;4.60;;;;;;;19.58;100.00;100850.44;5080032;28;20484;-58
2023/07/16 02:50:48;;;;;;;11.07;4.75;;;;;;;19.53;100.00;100858.84;5079982;28;20549;-60
2023/07/16 02:53:14;;;;;;;7.60;4.43;;;;;;;19.51;100.00;100859.97;5080480;28;20048;-58
2023/07/16 02:55:41;;;;;;;6.28;4.45;;;;;;;19.41;100.00;100881.31;5083317;28;20630;-58
2023/07/16 02:58:08;;;;;;;5.53;4.22;;;;;;;19.32;100.00;100899.00;5084143;28;20117;-58
2023/07/16 03:00:34;;;;;;;6.63;3.95;;;;;;;19.07;100.00;100878.66;5080943;28;20155;-58
2023/07/16 03:03:01;;;;;;;9.20;4.63;;;;;;;19.10;100.00;100856.97;5086367;28;20051;-58
2023/07/16 03:05:28;;;;;;;6.40;4.47;;;;;;;19.15;100.00;100844.06;5078453;28;20869;-58
2023/07/16 03:07:55;;;;;;;4.82;3.72;;;;;;;19.17;100.00;100842.09;5083197;28;20376;-58
2023/07/16 03:10:22;;;;;;;8.23;4.90;;;;;;;19.19;100.00;100856.25;5084917;28;20048;-58
2023/07/16 03:12:49;;;;;;;9.70;4.40;;;;;;;19.18;100.00;100849.16;5085761;28;20051;-58
2023/07/16 03:15:15;;;;;;;6.07;3.97;;;;;;;19.62;100.00;100846.53;5081698;28;20060;-58
2023/07/16 03:17:42;;;;;;;7.80;4.53;;;;;;;19.53;100.00;100858.84;5082605;28;20055;-58
2023/07/16 03:20:09;;;;;;;5.45;4.00;;;;;;;19.70;100.00;100853.94;5086631;28;20464;-58
2023/07/16 03:22:36;;;;;;;8.10;4.47;;;;;;;19.62;100.00;100852.75;5075994;28;20044;-58
2023/07/16 03:25:03;;;;;;;7.50;4.35;;;;;;;19.40;100.00;100863.50;5072162;28;20139;-58
2023/07/16 03:27:30;;;;;;;8.02;4.80;;;;;;;19.62;100.00;100839.34;5087654;28;20052;-60
2023/07/16 03:29:57;;;;;;;7.13;4.95;;;;;;;19.49;100.00;100817.19;5085070;28;20395;-59
2023/07/16 03:32:24;;;;;;;7.68;5.00;;;;;;;19.69;100.00;100854.91;5088014;28;20119;-59
2023/07/16 03:35:03;;;;;;;6.47;4.97;;;;;;;19.71;100.00;100866.38;5086475;28;20044;-59
2023/07/16 03:37:30;;;;;;;7.85;4.95;;;;;;;19.70;100.00;100867.31;5089414;28;20255;-60
2023/07/16 03:40:12;;;;;;;8.80;5.55;;;;;;;19.82;100.00;100874.41;5087170;28;20119;-59
2023/07/16 03:42:39;;;;;;;11.93;5.30;;;;;;;19.91;100.00;100879.03;5081805;28;20109;-59
2023/07/16 03:45:06;;;;;;;6.18;4.93;;;;;;;19.83;100.00;100865.41;5086562;28;20135;-59
2023/07/16 03:47:32;;;;;;;7.22;4.72;;;;;;;19.73;100.00;100869.75;5087136;28;20743;-59
2023/07/16 03:49:59;;;;;;;6.28;5.13;;;;;;;19.72;100.00;100868.91;5083455;28;20062;-60
2023/07/16 03:52:26;;;;;;;11.55;4.68;;;;;;;19.73;100.00;100875.13;5082983;28;20060;-60
2023/07/16 03:54:52;;;;;;;6.50;4.60;;;;;;;19.59;100.00;100884.31;5081247;28;20044;-59
2023/07/16 03:57:19;;;;;;;11.63;4.45;;;;;;;19.43;100.00;100876.66;5076219;28;20088;-60
2023/07/16 03:59:45;;;;;;;8.52;4.22;;;;;;;19.52;100.00;100870.56;5087153;28;20139;-60
2023/07/16 04:02:12;;;;;;;7.82;4.78;;;;;;;19.53;100.00;100853.47;5086947;28;20073;-60
2023/07/16 04:04:38;;;;;;;8.40;4.80;;;;;;;19.61;100.00;100842.97;5083048;28;20040;-60
2023/07/16 04:07:05;;;;;;;5.38;4.13;;;;;;;19.56;100.00;100837.16;5086855;28;20565;-60
2023/07/16 04:09:32;;;;;;;6.30;4.90;;;;;;;19.58;100.00;100840.56;5083638;28;20085;-60
2023/07/16 04:11:58;;;;;;;7.70;4.95;;;;;;;19.67;100.00;100844.31;5088267;28;20052;-60
2023/07/16 04:14:25;;;;;;;7.28;3.92;;;;;;;19.67;100.00;100860.41;5078608;28;20047;-60
2023/07/16 04:16:51;;;;;;;7.38;5.03;;;;;;;19.39;100.00;100872.53;5074102;28;20131;-60
2023/07/16 04:19:18;;;;;;;6.72;4.75;;;;;;;19.16;100.00;100863.66;5087090;28;20048;-60
2023/07/16 04:21:44;;;;;;;6.28;4.32;;;;;;;19.17;100.00;100874.25;5083854;28;20052;-60
2023/07/16 04:24:11;;;;;;;6.93;4.50;;;;;;;19.38;100.00;100886.91;5082416;28;20612;-60
2023/07/16 04:26:37;;;;;;;9.48;4.85;;;;;;;19.13;100.00;100893.41;5087754;28;20135;-60
2023/07/16 04:29:04;;;;;;;9.35;5.43;;;;;;;18.99;100.00;100881.09;5090370;28;20039;-60
2023/07/16 04:31:31;;;;;;;6.40;4.20;;;;;;;19.00;100.00;100872.94;5087222;28;20485;-60
2023/07/16 04:33:57;;;;;;;6.47;4.88;;;;;;;19.34;100.00;100882.75;5095549;28;20600;-60
2023/07/16 04:36:24;;;;;;;7.55;4.45;;;;;;;19.52;100.00;100886.66;5079936;28;20055;-60
2023/07/16 04:38:50;;;;;;;10.68;5.55;;;;;;;19.58;100.00;100882.59;5085300;28;20056;-60
2023/07/16 04:41:19;;;;;;;10.85;5.40;;;;;;;19.63;100.00;100894.66;5083332;28;20144;-60
2023/07/16 04:43:46;;;;;;;7.90;4.97;;;;;;;19.65;100.00;100904.41;5087962;28;20044;-60
2023/07/16 04:46:12;;;;;;;5.75;4.88;;;;;;;19.25;100.00;100906.63;5091434;28;20050;-60
2023/07/16 04:48:39;;;;;;;6.40;5.00;;;;;;;19.29;100.00;100909.06;5085269;28;20094;-60
2023/07/16 04:51:05;;;;;;;8.40;5.57;;;;;;;19.24;100.00;100902.28;5083327;28;20528;-60
2023/07/16 04:53:32;;;;;;;6.35;5.03;;;;;;;19.44;100.00;100929.31;5081643;28;20516;-60
2023/07/16 04:55:58;;;;;;;8.60;5.25;;;;;;;19.29;100.00;100946.59;5089949;28;20131;-60
2023/07/16 04:58:25;;;;;;;10.55;5.32;;;;;;;19.28;100.00;100956.47;5088050;28;20083;-60
2023/07/16 05:00:51;;;;;;;6.93;5.10;;;;;;;19.24;100.00;100953.19;5080616;28;20048;-60
2023/07/16 05:03:18;;;;;;;9.50;5.53;;;;;;;19.41;100.00;100956.34;5087733;28;20479;-60
2023/07/16 05:05:45;;;;;;;8.13;5.20;;;;;;;19.36;100.00;100963.91;5087203;28;20444;-60
2023/07/16 05:08:11;;;;;;;6.10;5.07;;;;;;;19.42;100.00;100958.06;5086909;28;20096;-60
2023/07/16 05:10:38;;;;;;;7.63;5.47;;;;;;;19.45;100.00;100957.78;5088032;28;20412;-60
2023/07/16 05:13:04;;;;;;;10.70;4.97;;;;;;;19.46;100.00;100943.44;5087596;28;20076;-60
2023/07/16 05:15:32;;;;;;;8.35;5.50;;;;;;;19.67;100.00;100940.00;5090436;28;20424;-60
2023/07/16 05:17:59;;;;;;;6.28;4.97;;;;;;;19.67;100.00;100940.84;5087217;28;20054;-60
2023/07/16 05:20:25;;;;;;;8.93;5.25;;;;;;;19.87;100.00;100946.44;5082841;28;20044;-60
2023/07/16 05:22:52;;;;;;;8.23;4.60;;;;;;;19.86;100.00;100934.88;5083838;28;20447;-60
2023/07/16 05:25:18;;;;;;;9.65;4.75;;;;;;;19.88;100.00;100954.38;5085663;28;20059;-60
2023/07/16 05:27:45;;;;;;;9.02;5.13;;;;;;;19.92;100.00;100950.44;5096669;28;20113;-60
2023/07/16 05:30:12;;;;;;;7.95;4.82;;;;;;;19.88;100.00;100954.38;5085225;28;20044;-59
2023/07/16 05:32:38;;;;;;;8.95;5.10;;;;;;;19.84;100.00;100963.63;5087957;28;20074;-59
2023/07/16 05:35:05;;;;;;;7.13;4.82;;;;;;;19.70;100.00;100966.53;5085952;28;20613;-59
2023/07/16 05:37:32;;;;;;;11.35;5.03;;;;;;;19.71;100.00;100973.63;5086867;28;20391;-60
2023/07/16 05:39:58;;;;;;;6.78;4.07;;;;;;;19.66;100.00;100974.00;5086071;28;20052;-60
2023/07/16 05:42:25;;;;;;;6.55;4.80;;;;;;;19.70;100.00;100971.91;5091671;28;20039;-59
2023/07/16 05:44:51;;;;;;;7.25;4.53;;;;;;;19.72;100.00;100964.63;5091717;28;20044;-59
2023/07/16 05:47:18;;;;;;;5.32;4.15;;;;;;;20.00;100.00;100968.59;5087815;28;20135;-59
2023/07/16 05:49:44;;;;;;;7.63;4.38;;;;;;;20.03;100.00;100963.00;5087143;28;20084;-60
2023/07/16 05:52:11;;;;;;;5.25;4.47;;;;;;;19.95;100.00;100960.09;5087065;28;20047;-59
2023/07/16 05:54:37;;;;;;;7.30;4.00;;;;;;;20.31;100.00;100961.53;5086668;28;20055;-59
2023/07/16 05:57:04;;;;;;;13.75;4.60;;;;;;;20.21;100.00;100946.34;5086906;28;20044;-59
2023/07/16 05:59:36;;;;;;;5.32;3.78;;;;;;;20.52;100.00;100950.84;5087101;28;20054;-59
2023/07/16 06:02:03;;;;;;;5.10;3.80;;;;;;;20.59;100.00;100950.31;5087144;28;20135;-59
2023/07/16 06:04:30;;;;;;;4.45;3.50;;;;;;;20.67;100.00;100939.81;5082681;28;20505;-59
2023/07/16 06:06:57;;;;;;;10.40;4.45;;;;;;;20.71;100.00;100931.38;5084372;28;20050;-59
2023/07/16 06:09:23;;;;;;;6.32;3.17;;;;;;;20.57;100.00;100928.13;5086665;28;20070;-59
2023/07/16 06:11:50;;;;;;;5.10;3.28;;;;;;;20.64;100.00;100940.91;5094306;28;20048;-59
2023/07/16 06:14:17;;;;;;;7.05;4.32;;;;;;;20.73;100.00;100939.28;5086485;28;20082;-59
2023/07/16 06:16:43;;;;;;;5.75;3.80;;;;;;;20.79;100.00;100937.91;5086564;28;20074;-59
2023/07/16 06:19:10;;;;;;;6.22;3.60;;;;;;;20.92;100.00;100943.06;5080517;28;20431;-59
2023/07/16 06:21:36;;;;;;;6.22;3.53;;;;;;;20.98;100.00;100943.38;5078864;28;20148;-59
2023/07/16 06:24:03;;;;;;;5.75;3.60;;;;;;;21.09;100.00;100929.88;5086224;28;20048;-59
2023/07/16 06:26:29;;;;;;;5.18;3.78;;;;;;;21.14;100.00;100937.53;5089308;28;20044;-59
2023/07/16 06:28:56;;;;;;;5.97;3.40;;;;;;;21.19;100.00;100939.81;5086862;28;20527;-59
2023/07/16 06:31:22;;;;;;;7.25;2.72;;;;;;;21.26;100.00;100943.66;5097949;28;20072;-60
2023/07/16 06:33:52;;;;;;;5.95;3.28;;;;;;;21.28;100.00;100939.00;5086653;28;20142;-60
2023/07/16 06:36:20;;;;;;;6.72;3.55;;;;;;;21.43;100.00;100932.28;5086249;28;20046;-60
2023/07/16 06:38:47;;;;;;;5.72;3.00;;;;;;;21.53;100.00;100928.78;5081180;28;20051;-61
2023/07/16 06:41:13;;;;;;;4.32;3.35;;;;;;;21.55;100.00;100937.59;5089260;28;20547;-60
2023/07/16 06:43:40;;;;;;;6.50;3.42;;;;;;;21.67;100.00;100939.16;5089389;28;20084;-60
2023/07/16 06:46:06;;;;;;;5.72;2.92;;;;;;;21.78;100.00;100930.97;5086352;28;20071;-59
2023/07/16 06:48:34;;;;;;;5.13;2.97;;;;;;;21.76;100.00;100935.66;5085859;28;20048;-59
2023/07/16 06:51:00;;;;;;;4.65;2.75;;;;;;;21.91;100.00;100935.25;5089847;28;20141;-59
2023/07/16 06:53:27;;;;;;;5.43;3.33;;;;;;;22.10;100.00;100929.03;5079722;28;20059;-59
2023/07/16 06:55:53;;;;;;;4.15;2.88;;;;;;;22.04;100.00;100925.06;5089431;28;20059;-59
2023/07/16 06:58:30;;;;;;;5.18;2.95;;;;;;;22.24;100.00;100925.09;5089105;28;20113;-60
2023/07/16 07:00:57;;;;;;;10.38;3.53;;;;;;;22.32;100.00;100925.25;5081159;28;20044;-59
2023/07/16 07:03:24;;;;;;;3.92;2.85;;;;;;;22.65;100.00;100925.78;5089170;28;20051;-59
2023/07/16 07:05:50;;;;;;;4.32;2.80;;;;;;;22.95;100.00;100929.25;5087606;28;20479;-60
2023/07/16 07:08:17;;;;;;;4.32;2.83;;;;;;;22.96;100.00;100925.56;5088994;28;20051;-59
2023/07/16 07:10:43;;;;;;;4.32;2.78;;;;;;;22.99;100.00;100925.28;5089662;28;20094;-59
2023/07/16 07:13:10;;;;;;;5.03;2.40;;;;;;;23.06;100.00;100931.75;5088625;28;20131;-59
2023/07/16 07:15:36;;;;;;;3.67;2.40;;;;;;;23.02;100.00;100933.06;5089348;28;20048;-60
2023/07/16 07:18:03;;;;;;;4.10;2.35;;;;;;;22.70;100.00;100936.97;5088682;28;20418;-59
2023/07/16 07:20:30;;;;;;;5.47;2.47;;;;;;;22.84;100.00;100939.22;5087922;28;20408;-60
2023/07/16 07:22:56;;;;;;;4.40;2.45;;;;;;;22.78;100.00;100939.78;5089170;28;20051;-60
2023/07/16 07:25:23;;;;;;;3.65;2.70;;;;;;;22.55;100.00;100942.78;5088599;28;20036;-60
2023/07/16 07:27:49;;;;;;;4.90;2.20;;;;;;;22.52;100.00;100948.47;5088543;28;20140;-60
2023/07/16 07:30:16;;;;;;;5.25;2.35;;;;;;;22.75;100.00;100950.84;5089884;28;20048;-59
2023/07/16 07:32:42;;;;;;;3.75;2.42;;;;;;;22.69;100.00;100949.59;5090007;28;20123;-59
2023/07/16 07:35:09;;;;;;;4.55;2.65;;;;;;;22.79;100.00;100946.88;5088626;28;20064;-59
2023/07/16 07:37:36;;;;;;;8.40;3.22;;;;;;;23.13;100.00;100957.19;5088450;28;20079;-59
2023/07/16 07:40:03;;;;;;;5.40;2.78;;;;;;;23.25;100.00;100964.09;5086914;28;20153;-59
2023/07/16 07:42:30;;;;;;;6.57;2.25;;;;;;;23.02;100.00;100957.34;5087898;28;20083;-59
2023/07/16 07:44:56;;;;;;;5.85;2.25;;;;;;;22.81;100.00;100955.66;5087849;28;20064;-59
2023/07/16 07:47:23;;;;;;;6.93;2.00;;;;;;;22.67;100.00;100953.41;5089189;28;20131;-59
2023/07/16 07:49:52;;;;;;;3.40;2.10;;;;;;;22.48;100.00;100952.44;5088783;28;20064;-59
2023/07/16 07:52:18;;;;;;;4.30;1.60;;;;;;;22.25;100.00;100951.00;5084677;28;20054;-59
2023/07/16 07:54:45;;;;;;;6.00;2.20;;;;;;;22.30;100.00;100963.09;5080682;28;20098;-59
2023/07/16 07:57:12;;;;;;;2.63;1.60;;;;;;;22.33;100.00;100962.81;5088375;28;20395;-59
2023/07/16 07:59:40;;;;;;;3.35;1.70;;;;;;;22.51;100.00;100976.41;5088561;28;20399;-59
2023/07/16 08:02:07;;;;;;;2.92;1.73;;;;;;;22.58;100.00;100970.47;5078275;28;20048;-59
2023/07/16 08:04:33;;;;;;;6.80;2.15;;;;;;;23.21;100.00;100973.47;5088136;28;20043;-59
2023/07/16 08:07:00;;;;;;;5.20;1.98;;;;;;;23.00;100.00;100970.09;5088692;28;20117;-59
2023/07/16 08:09:27;;;;;;;3.78;1.58;;;;;;;22.98;100.00;100962.13;5088896;28;20046;-59
2023/07/16 08:11:53;;;;;;;4.88;1.48;;;;;;;22.94;100.00;100958.06;5087720;28;20081;-59
2023/07/16 08:14:20;;;;;;;3.20;1.67;;;;;;;22.83;100.00;100953.66;5088335;28;20135;-59
2023/07/16 08:16:46;;;;;;;3.75;1.50;;;;;;;23.07;100.00;100963.16;5088211;28;20176;-59
2023/07/16 08:19:13;;;;;;;4.18;1.95;;;;;;;23.35;100.00;100964.03;5087903;28;20075;-59
2023/07/16 08:21:40;;;;;;;4.88;1.13;;;;;;;23.20;100.00;100962.84;5088269;28;20131;-59
2023/07/16 08:24:06;;;;;;;5.35;1.63;;;;;;;23.61;100.00;100960.66;5086768;28;20060;-60
2023/07/16 08:26:33;;;;;;;5.20;1.85;;;;;;;23.78;100.00;100956.31;5088482;28;20044;-59
2023/07/16 08:29:01;;;;;;;6.40;2.00;;;;;;;23.99;100.00;100967.69;5087093;28;20044;-59
2023/07/16 08:31:28;;;;;;;4.25;1.80;;;;;;;23.96;100.00;100962.59;5084924;28;20043;-59
2023/07/16 08:33:55;;;;;;;6.38;2.13;;;;;;;23.75;100.00;100981.75;5085599;28;20060;-59
2023/07/16 08:36:23;;;;;;;4.65;2.45;;;;;;;24.19;100.00;100978.34;5087175;28;20044;-59
2023/07/16 08:38:50;;;;;;;5.82;2.58;;;;;;;24.13;100.00;100981.69;5088220;28;20081;-59
2023/07/16 08:41:17;;;;;;;12.90;3.22;;;;;;;24.26;100.00;100979.47;5080182;28;20075;-59
2023/07/16 08:43:49;;;;;;;5.07;2.03;;;;;;;23.94;100.00;100986.22;5082055;28;20062;-59
2023/07/16 08:46:16;;;;;;;12.82;2.58;;;;;;;24.10;100.00;100984.69;5079818;28;20040;-59
2023/07/16 08:48:44;;;;;;;6.72;2.03;;;;;;;24.16;100.00;100976.84;5087643;28;20048;-59
2023/07/16 08:51:15;;;;;;;6.32;2.40;;;;;;;24.37;100.00;100991.88;5087346;28;20063;-59
2023/07/16 08:53:42;;;;;;;5.95;2.45;;;;;;;23.87;100.00;100989.69;5090485;28;20269;-58
2023/07/16 08:56:09;;;;;;;6.70;2.50;;;;;;;24.00;100.00;100992.88;5088024;28;20180;-58
2023/07/16 08:58:37;;;;;;;4.07;2.10;;;;;;;24.04;100.00;100982.59;5086949;28;20056;-58
2023/07/16 09:01:06;;;;;;;5.55;2.10;;;;;;;24.05;100.00;100982.44;5088075;28;20135;-59
2023/07/16 09:03:32;;;;;;;7.32;2.55;;;;;;;24.06;100.00;100975.19;5087679;28;20050;-59
2023/07/16 09:05:59;;;;;;;3.05;1.73;;;;;;;24.07;100.00;100995.81;5087781;28;20270;-59
2023/07/16 09:08:28;;;;;;;9.50;2.50;;;;;;;23.89;100.00;100993.91;5087269;28;20062;-59
2023/07/16 09:10:56;;;;;;;3.33;1.90;;;;;;;24.01;100.00;100997.25;5087602;28;20051;-59
2023/07/16 09:13:27;;;;;;;4.93;1.83;;;;;;;24.17;100.00;101002.81;5087646;28;20138;-59
2023/07/16 09:15:56;;;;;;;4.07;1.90;;;;;;;23.89;100.00;100995.78;5086966;28;20040;-59
2023/07/16 09:18:26;;;;;;;5.95;1.58;;;;;;;24.00;100.00;100999.09;5087408;28;20055;-59
2023/07/16 09:20:56;;;;;;;4.93;2.10;;;;;;;23.54;100.00;101011.69;5089238;28;20443;-60
2023/07/16 09:23:25;;;;;;;4.75;1.85;;;;;;;23.28;100.00;101006.94;5087581;28;20044;-59
2023/07/16 09:25:54;;;;;;;6.28;2.40;;;;;;;23.35;100.00;101006.34;5087394;28;20044;-59
2023/07/16 09:28:21;;;;;;;9.05;3.75;;;;;;;23.37;100.00;100993.56;5087392;28;20048;-58
2023/07/16 09:30:48;;;;;;;6.00;2.53;;;;;;;23.58;100.00;100991.47;5087847;28;20136;-59
2023/07/16 09:33:17;;;;;;;5.13;2.00;;;;;;;23.44;100.00;100992.84;5086406;28;20113;-58
2023/07/16 09:35:44;;;;;;;5.30;2.13;;;;;;;23.80;100.00;100994.78;5087897;28;20248;-58
2023/07/16 09:38:11;;;;;;;7.95;2.30;;;;;;;24.27;100.00;100997.34;5088250;28;20052;-58
2023/07/16 09:40:39;;;;;;;4.50;2.17;;;;;;;24.44;100.00;100994.78;5087267;28;20105;-58
2023/07/16 09:43:06;;;;;;;6.88;2.42;;;;;;;24.83;100.00;100991.78;5086831;28;20591;-58
2023/07/16 09:45:33;;;;;;;2.90;2.08;;;;;;;25.38;100.00;100990.66;5085810;28;20174;-59
2023/07/16 09:47:59;;;;;;;4.35;1.83;;;;;;;25.13;100.00;100987.78;5087792;28;20086;-58
2023/07/16 09:50:31;;;;;;;4.50;2.28;;;;;;;24.80;100.00;100989.38;5087890;28;20090;-60
2023/07/16 09:52:58;;;;;;;3.70;2.38;;;;;;;25.01;100.00;101002.56;5088280;28;20483;-58
2023/07/16 09:55:25;;;;;;;3.17;1.75;;;;;;;25.16;100.00;100995.56;5086899;28;20044;-59
2023/07/16 09:57:56;;;;;;;6.57;2.67;;;;;;;25.31;100.00;100998.56;5087218;28;20391;-59
2023/07/16 10:00:24;;;;;;;3.70;1.80;;;;;;;25.23;100.00;100995.78;5086838;28;20052;-59
2023/07/16 10:02:52;;;;;;;4.25;2.03;;;;;;;25.34;100.00;101000.06;5087046;28;20047;-59
2023/07/16 10:05:26;;;;;;;4.68;1.38;;;;;;;24.97;100.00;100995.78;5086909;28;20063;-58
2023/07/16 10:07:58;;;;;;;4.80;2.53;;;;;;;24.50;100.00;100999.59;5085819;28;20048;-59
2023/07/16 10:10:43;;;;;;;4.53;2.33;;;;;;;24.23;100.00;100998.66;5086852;28;20079;-59
2023/07/16 10:13:12;;;;;;;5.43;2.03;;;;;;;24.42;100.00;101004.91;5084370;28;20166;-59
2023/07/16 10:15:42;;;;;;;4.35;1.80;;;;;;;24.51;100.00;100993.19;5086329;28;20052;-58
2023/07/16 10:18:09;;;;;;;4.38;2.08;;;;;;;24.70;100.00;100993.06;5086616;28;20478;-59
2023/07/16 10:20:42;;;;;;;8.10;1.63;;;;;;;24.66;100.00;100997.06;5086878;28;20056;-58
2023/07/16 10:23:13;;;;;;;4.00;2.05;;;;;;;24.80;100.00;100998.38;5086980;28;20047;-58
2023/07/16 10:25:41;;;;;;;4.18;2.03;;;;;;;25.06;100.00;100990.28;5086629;28;20373;-59
2023/07/16 10:28:07;;;;;;;7.30;2.28;;;;;;;25.17;100.00;100999.94;5087633;28;20052;-59
2023/07/16 10:30:35;;;;;;;4.82;2.30;;;;;;;25.42;100.00;100998.28;5087168;28;20056;-59
2023/07/16 10:33:12;;;;;;;5.00;1.58;;;;;;;25.53;100.00;101004.41;5086924;28;20546;-59
2023/07/16 10:35:44;;;;;;;3.92;1.60;;;;;;;25.46;100.00;100988.81;5082310;28;20226;-59
2023/07/16 10:38:11;;;;;;;3.70;1.60;;;;;;;25.65;100.00;100997.72;5086329;28;20155;-58
2023/07/16 10:40:43;;;;;;;3.58;1.70;;;;;;;25.72;100.00;100997.91;5086827;28;20055;-58
2023/07/16 10:43:11;;;;;;;4.32;2.00;;;;;;;25.99;100.00;100992.28;5086225;28;20530;-60
2023/07/16 10:45:38;;;;;;;4.45;2.22;;;;;;;25.66;100.00;101002.09;5086041;28;20063;-60
2023/07/16 10:48:04;;;;;;;5.80;1.70;;;;;;;25.92;100.00;101003.91;5085358;28;20048;-59
2023/07/16 10:50:35;;;;;;;4.38;1.85;;;;;;;25.77;100.00;101001.81;5082411;28;20064;-59
2023/07/16 10:53:02;;;;;;;2.92;1.55;;;;;;;25.50;100.00;101011.00;5088450;28;20155;-58
2023/07/16 10:55:32;;;;;;;6.95;2.33;;;;;;;25.82;100.00;101010.28;5087185;28;20143;-59
2023/07/16 10:58:05;;;;;;;5.90;1.55;;;;;;;26.43;100.00;101012.81;5085204;28;20058;-59
2023/07/16 11:00:32;;;;;;;5.47;1.50;;;;;;;26.76;100.00;101012.91;5086533;28;20060;-59
2023/07/16 11:02:59;;;;;;;3.25;1.63;;;;;;;27.23;100.00;101003.16;5085832;28;20087;-59
2023/07/16 11:05:25;;;;;;;4.80;1.60;;;;;;;28.21;100.00;100991.06;5084860;28;20055;-59
2023/07/16 11:07:52;;;;;;;6.60;1.70;;;;;;;29.45;80.88;100986.19;5085730;28;20072;-59
2023/07/16 11:10:21;;;;;;;5.13;1.55;;;;;;;30.35;69.39;100983.28;5084860;28;20559;-58
2023/07/16 11:12:52;;;;;;;5.13;1.85;;;;;;;29.90;65.82;100996.22;5086498;28;20207;-59
2023/07/16 11:15:30;;;;;;;5.45;1.70;;;;;;;27.07;59.88;100998.59;5082446;28;20044;-59
2023/07/16 11:17:57;;;;;;;5.85;1.90;;;;;;;27.12;65.68;101009.81;5086162;28;20059;-59